createdAt,value
2019-02-27T00:00:28.112Z,24.93
2019-02-27T00:02:57.214Z,22.83
2019-02-27T00:05:26.502Z,24.37
2019-02-27T00:07:55.546Z,22.37
2019-02-27T00:10:24.776Z,27.50
2019-02-27T00:12:54.045Z,23.63
2019-02-27T00:18:24.484Z,24.07
2019-02-27T00:20:53.790Z,24.67
2019-02-27T00:23:24.074Z,25.17
2019-02-27T00:25:55.289Z,24.13
2019-02-27T00:28:24.455Z,25.90
2019-02-27T00:30:53.633Z,25.57
2019-02-27T00:33:25.393Z,22.90
2019-02-27T00:36:05.335Z,24.57
2019-02-27T00:38:34.778Z,24.93
2019-02-27T00:41:03.938Z,23.27
2019-02-27T00:43:33.070Z,23.40
2019-02-27T00:46:02.224Z,25.07
2019-02-27T00:48:31.655Z,23.20
2019-02-27T00:51:00.962Z,24.87
2019-02-27T00:53:30.505Z,22.40
2019-02-27T00:55:59.649Z,24.20
2019-02-27T00:58:28.872Z,25.03
2019-02-27T01:00:58.060Z,24.67
2019-02-27T01:03:27.531Z,25.87
2019-02-27T01:05:56.811Z,25.27
2019-02-27T01:08:27.602Z,24.50
2019-02-27T01:10:56.875Z,23.40
2019-02-27T01:13:26.095Z,25.73
2019-02-27T01:15:55.391Z,26.50
2019-02-27T01:18:24.604Z,25.17
2019-02-27T01:20:53.924Z,26.03
2019-02-27T01:23:23.273Z,24.83
2019-02-27T01:25:56.057Z,24.17
2019-02-27T01:28:23.503Z,25.00
2019-02-27T01:30:52.860Z,24.90
2019-02-27T01:33:21.985Z,25.30
2019-02-27T01:35:52.279Z,26.07
2019-02-27T01:38:21.690Z,24.30
2019-02-27T01:40:51.554Z,24.10
2019-02-27T01:43:21.335Z,23.77
2019-02-27T01:45:51.856Z,23.83
2019-02-27T01:48:21.455Z,23.23
2019-02-27T01:50:54.992Z,22.37
2019-02-27T01:53:21.453Z,22.90
2019-02-27T01:55:50.566Z,22.97
2019-02-27T01:58:19.664Z,23.90
2019-02-27T02:00:48.795Z,23.93
2019-02-27T02:03:18.034Z,25.20
2019-02-27T02:05:47.245Z,25.63
2019-02-27T02:08:16.551Z,24.00
2019-02-27T02:10:45.744Z,22.73
2019-02-27T02:13:38.031Z,22.00
2019-02-27T02:16:36.212Z,24.03
2019-02-27T02:19:54.257Z,24.53
2019-02-27T02:22:52.785Z,22.07
2019-02-27T02:25:54.202Z,24.53
2019-02-27T02:29:12.734Z,25.07
2019-02-27T02:32:01.516Z,23.97
2019-02-27T02:34:45.972Z,23.33
2019-02-27T02:37:58.257Z,24.77
2019-02-27T02:41:12.329Z,23.00
2019-02-27T02:44:10.054Z,27.43
2019-02-27T02:47:11.038Z,24.73
2019-02-27T02:50:24.316Z,22.80
2019-02-27T02:53:27.293Z,23.03
2019-02-27T02:56:39.203Z,23.60
2019-02-27T03:00:03.991Z,24.77
2019-02-27T03:03:05.965Z,24.57
2019-02-27T03:06:06.434Z,25.53
2019-02-27T03:09:18.469Z,25.23
2019-02-27T03:12:02.640Z,26.87
2019-02-27T03:15:28.871Z,26.73
2019-02-27T03:18:37.121Z,26.77
2019-02-27T03:21:38.218Z,26.90
2019-02-27T03:24:37.695Z,25.37
2019-02-27T03:27:30.545Z,25.77
2019-02-27T03:30:36.355Z,26.00
2019-02-27T03:33:27.049Z,26.03
2019-02-27T03:36:36.049Z,23.30
2019-02-27T03:39:38.228Z,26.23
2019-02-27T03:42:37.461Z,26.83
2019-02-27T03:45:44.888Z,24.03
2019-02-27T03:48:43.160Z,27.27
2019-02-27T03:51:51.375Z,26.50
2019-02-27T03:54:31.736Z,25.97
2019-02-27T03:57:33.972Z,27.63
2019-02-27T04:00:44.140Z,26.77
2019-02-27T04:03:56.880Z,22.77
2019-02-27T04:07:02.770Z,26.63
2019-02-27T04:09:31.938Z,23.53
2019-02-27T04:12:01.045Z,26.53
2019-02-27T04:14:40.456Z,26.07
2019-02-27T04:17:07.293Z,25.77
2019-02-27T04:19:39.309Z,26.90
2019-02-27T04:22:07.379Z,27.37
2019-02-27T04:24:36.578Z,27.57
2019-02-27T04:27:05.624Z,26.47
2019-02-27T04:29:34.930Z,26.47
2019-02-27T04:32:04.327Z,26.33
2019-02-27T04:34:33.794Z,25.13
2019-02-27T04:37:03.023Z,26.43
2019-02-27T04:39:32.330Z,26.43
2019-02-27T04:42:01.587Z,26.20
2019-02-27T04:44:30.710Z,26.93
2019-02-27T04:46:59.864Z,26.47
2019-02-27T04:49:29.115Z,27.27
2019-02-27T04:51:58.515Z,23.27
2019-02-27T04:54:27.623Z,25.63
2019-02-27T04:56:57.580Z,26.97
2019-02-27T04:59:27.367Z,28.40
2019-02-27T05:01:56.572Z,25.07
2019-02-27T05:04:25.732Z,27.10
2019-02-27T05:06:55.068Z,27.93
2019-02-27T05:09:24.258Z,27.17
2019-02-27T05:11:53.520Z,25.07
2019-02-27T05:14:24.798Z,27.47
2019-02-27T05:16:53.875Z,27.73
2019-02-27T05:19:23.058Z,26.23
2019-02-27T05:21:53.091Z,27.33
2019-02-27T05:24:22.241Z,28.73
2019-02-27T05:26:51.818Z,29.03
2019-02-27T05:29:21.071Z,27.80
2019-02-27T05:31:53.364Z,28.53
2019-02-27T05:34:21.179Z,28.70
2019-02-27T05:36:50.419Z,28.50
2019-02-27T05:39:19.577Z,28.20
2019-02-27T05:41:48.779Z,29.40
2019-02-27T05:44:21.211Z,29.17
2019-02-27T05:46:48.958Z,26.60
2019-02-27T05:49:18.388Z,27.90
2019-02-27T05:51:47.724Z,28.07
2019-02-27T05:54:16.873Z,29.37
2019-02-27T05:56:47.139Z,28.20
2019-02-27T05:59:17.049Z,27.23
2019-02-27T06:01:46.260Z,34.70
2019-02-27T06:04:15.428Z,31.57
2019-02-27T06:06:45.714Z,26.90
2019-02-27T06:09:15.328Z,27.97
2019-02-27T06:11:44.545Z,28.00
2019-02-27T06:14:13.741Z,35.93
2019-02-27T06:16:43.009Z,33.50
2019-02-27T06:19:12.203Z,29.57
2019-02-27T06:21:41.342Z,27.97
2019-02-27T06:24:12.548Z,35.00
2019-02-27T06:26:41.436Z,32.63
2019-02-27T06:29:10.677Z,30.13
2019-02-27T06:31:40.049Z,29.60
2019-02-27T06:34:09.245Z,29.50
2019-02-27T06:36:41.994Z,30.03
2019-02-27T06:39:09.511Z,29.30
2019-02-27T06:41:39.959Z,31.07
2019-02-27T06:44:09.318Z,25.65
2019-02-27T06:46:38.910Z,30.73
2019-02-27T06:49:08.099Z,29.90
2019-02-27T06:51:37.357Z,28.80
2019-02-27T06:54:06.521Z,31.13
2019-02-27T06:56:35.720Z,31.40
2019-02-27T06:59:05.177Z,28.73
2019-02-27T07:01:34.519Z,30.33
2019-02-27T07:04:04.780Z,29.87
2019-02-27T07:06:36.808Z,29.77
2019-02-27T07:09:11.309Z,26.83
2019-02-27T07:11:38.372Z,27.00
2019-02-27T07:14:07.564Z,32.67
2019-02-27T07:16:36.922Z,31.33
2019-02-27T07:19:15.761Z,35.67
2019-02-27T07:21:44.479Z,30.37
2019-02-27T07:24:14.035Z,30.60
2019-02-27T07:26:43.302Z,29.30
2019-02-27T07:29:21.092Z,27.70
2019-02-27T07:31:43.545Z,26.47
2019-02-27T07:34:14.387Z,27.13
2019-02-27T07:36:43.830Z,26.40
2019-02-27T07:39:13.170Z,27.10
2019-02-27T07:41:42.389Z,23.83
2019-02-27T07:44:11.704Z,26.33
2019-02-27T07:46:40.971Z,25.13
2019-02-27T07:49:10.235Z,27.27
2019-02-27T07:51:39.629Z,26.30
2019-02-27T07:54:08.909Z,27.00
2019-02-27T07:56:38.227Z,25.00
2019-02-27T07:59:07.596Z,27.60
2019-02-27T08:01:43.520Z,25.30
2019-02-27T08:04:08.144Z,27.30
2019-02-27T08:06:41.459Z,25.43
2019-02-27T08:09:11.039Z,26.53
2019-02-27T08:11:40.342Z,24.80
2019-02-27T08:14:09.626Z,25.47
2019-02-27T08:16:38.894Z,27.43
2019-02-27T08:19:08.951Z,26.53
2019-02-27T08:21:39.119Z,28.50
2019-02-27T08:24:12.051Z,26.07
2019-02-27T08:26:41.311Z,26.53
2019-02-27T08:29:10.553Z,26.33
2019-02-27T08:31:39.794Z,25.37
2019-02-27T08:34:09.060Z,25.20
2019-02-27T08:36:38.219Z,27.43
2019-02-27T08:39:07.637Z,28.67
2019-02-27T08:41:37.071Z,25.20
2019-02-27T08:44:06.280Z,25.33
2019-02-27T08:46:37.147Z,23.83
2019-02-27T08:49:06.472Z,23.43
2019-02-27T08:51:35.898Z,24.30
2019-02-27T08:54:05.623Z,22.50
2019-02-27T08:56:35.121Z,24.43
2019-02-27T08:59:05.832Z,22.27
2019-02-27T09:01:37.789Z,21.77
2019-02-27T09:04:11.551Z,21.47
2019-02-27T09:06:38.033Z,22.43
2019-02-27T09:09:10.988Z,23.67
2019-02-27T09:11:40.744Z,19.67
2019-02-27T09:14:11.977Z,23.43
2019-02-27T09:16:41.166Z,23.43
2019-02-27T09:21:39.762Z,25.20
2019-02-27T09:24:09.228Z,24.70
2019-02-27T09:26:38.833Z,23.33
2019-02-27T09:29:08.280Z,23.97
2019-02-27T09:31:38.458Z,23.30
2019-02-27T09:34:09.415Z,25.37
2019-02-27T09:36:42.989Z,22.33
2019-02-27T09:39:10.393Z,22.60
2019-02-27T09:41:39.795Z,22.37
2019-02-27T09:44:09.220Z,26.43
2019-02-27T09:46:38.676Z,33.90
2019-02-27T09:49:07.966Z,23.93
2019-02-27T09:51:38.125Z,25.70
2019-02-27T09:54:11.033Z,24.93
2019-02-27T09:56:40.216Z,23.60
2019-02-27T09:59:09.853Z,26.13
2019-02-27T10:01:39.447Z,25.90
2019-02-27T10:04:09.709Z,26.37
2019-02-27T10:06:40.484Z,24.83
2019-02-27T10:09:15.624Z,22.33
2019-02-27T10:11:45.151Z,25.53
2019-02-27T10:14:16.419Z,24.07
2019-02-27T10:16:45.515Z,23.87
2019-02-27T10:19:17.009Z,26.27
2019-02-27T10:21:47.536Z,27.50
2019-02-27T10:24:17.660Z,24.60
2019-02-27T10:26:47.548Z,24.73
2019-02-27T10:29:18.951Z,24.73
2019-02-27T10:31:48.257Z,26.73
2019-02-27T10:34:18.309Z,25.70
2019-02-27T10:36:48.554Z,27.00
2019-02-27T10:39:18.259Z,26.17
2019-02-27T10:41:50.096Z,24.63
2019-02-27T10:44:18.987Z,26.40
2019-02-27T10:46:48.525Z,26.00
2019-02-27T10:49:21.535Z,25.43
2019-02-27T10:51:49.438Z,25.00
2019-02-27T10:54:18.890Z,23.13
2019-02-27T10:56:48.014Z,24.73
2019-02-27T10:59:19.670Z,24.77
2019-02-27T11:01:48.312Z,27.40
2019-02-27T11:04:17.580Z,21.27
2019-02-27T11:06:46.872Z,22.03
2019-02-27T11:09:27.745Z,23.97
2019-02-27T11:11:56.880Z,23.03
2019-02-27T11:14:26.204Z,22.40
2019-02-27T11:16:55.569Z,21.63
2019-02-27T11:19:24.855Z,21.93
2019-02-27T11:21:54.164Z,24.20
2019-02-27T11:24:24.773Z,20.60
2019-02-27T11:26:54.379Z,19.00
2019-02-27T11:29:24.338Z,18.27
2019-02-27T11:31:53.567Z,15.50
2019-02-27T11:34:22.803Z,16.63
2019-02-27T11:36:52.012Z,25.60
2019-02-27T11:39:21.271Z,17.53
2019-02-27T11:41:50.633Z,17.63
2019-02-27T11:44:19.954Z,15.37
2019-02-27T11:46:58.464Z,19.23
2019-02-27T11:49:20.142Z,16.93
2019-02-27T11:51:50.585Z,17.20
2019-02-27T11:54:20.289Z,17.77
2019-02-27T11:56:51.506Z,16.20
2019-02-27T11:59:20.427Z,17.90
2019-02-27T12:01:49.669Z,18.63
2019-02-27T12:04:19.987Z,38.63
2019-02-27T12:06:49.406Z,27.70
2019-02-27T12:09:19.226Z,14.97
2019-02-27T12:11:49.378Z,14.13
2019-02-27T12:14:19.076Z,13.17
2019-02-27T12:16:51.531Z,15.53
2019-02-27T12:19:19.511Z,12.90
2019-02-27T12:21:51.001Z,14.27
2019-02-27T12:24:20.935Z,31.03
2019-02-27T12:26:50.096Z,17.73
2019-02-27T12:29:19.354Z,16.53
2019-02-27T12:31:48.980Z,24.03
2019-02-27T12:34:18.365Z,18.60
2019-02-27T12:36:49.911Z,16.63
2019-02-27T12:39:18.744Z,18.47
2019-02-27T12:41:48.007Z,14.83
2019-02-27T12:44:17.984Z,13.10
2019-02-27T12:46:47.205Z,13.73
2019-02-27T12:49:16.869Z,11.90
2019-02-27T12:51:47.521Z,15.63
2019-02-27T12:54:16.810Z,10.27
2019-02-27T12:56:46.065Z,10.30
2019-02-27T12:59:15.282Z,13.00
2019-02-27T13:01:45.630Z,12.23
2019-02-27T13:04:16.550Z,12.67
2019-02-27T13:06:45.839Z,10.77
2019-02-27T13:09:15.071Z,10.93
2019-02-27T13:11:45.425Z,10.50
2019-02-27T13:14:14.672Z,9.07
2019-02-27T13:16:46.424Z,8.63
2019-02-27T13:19:14.929Z,10.03
2019-02-27T13:21:44.189Z,8.00
2019-02-27T13:24:15.365Z,7.33
2019-02-27T13:26:44.334Z,7.30
2019-02-27T13:29:13.679Z,4.80
2019-02-27T13:31:42.847Z,4.07
2019-02-27T13:34:13.905Z,3.43
2019-02-27T13:36:43.050Z,3.40
2019-02-27T13:39:12.211Z,9.70
2019-02-27T13:41:42.384Z,4.40
2019-02-27T13:44:12.240Z,5.37
2019-02-27T13:46:41.599Z,4.80
2019-02-27T13:49:11.363Z,3.57
2019-02-27T13:51:41.882Z,3.67
2019-02-27T13:54:11.134Z,5.80
2019-02-27T13:56:40.371Z,4.37
2019-02-27T13:59:10.913Z,3.60
2019-02-27T14:01:40.539Z,4.93
2019-02-27T14:04:09.695Z,3.47
2019-02-27T14:06:42.864Z,3.63
2019-02-27T14:09:10.370Z,4.53
2019-02-27T14:11:39.564Z,4.60
2019-02-27T14:14:08.858Z,4.93
2019-02-27T14:16:38.120Z,2.70
2019-02-27T14:19:07.429Z,4.57
2019-02-27T14:21:36.645Z,2.90
2019-02-27T14:24:05.899Z,2.97
2019-02-27T14:26:35.351Z,4.53
2019-02-27T14:29:04.700Z,6.90
2019-02-27T14:31:34.053Z,5.17
2019-02-27T14:34:03.262Z,4.40
2019-02-27T14:36:32.588Z,6.57
2019-02-27T14:39:01.969Z,4.80
2019-02-27T14:41:31.119Z,12.77
2019-02-27T14:44:00.434Z,3.23
2019-02-27T14:46:29.606Z,6.10
2019-02-27T14:48:58.788Z,8.10
2019-02-27T14:51:28.184Z,7.73
2019-02-27T14:53:57.294Z,5.07
2019-02-27T14:56:26.473Z,6.97
2019-02-27T14:58:56.602Z,5.80
2019-02-27T15:01:27.045Z,5.13
2019-02-27T15:03:56.402Z,4.60
2019-02-27T15:06:25.605Z,5.47
2019-02-27T15:08:57.938Z,4.73
2019-02-27T15:11:25.504Z,4.63
2019-02-27T15:13:54.653Z,5.77
2019-02-27T15:16:23.797Z,5.27
2019-02-27T15:18:55.212Z,6.67
2019-02-27T15:21:23.769Z,8.27
2019-02-27T15:23:52.974Z,5.63
2019-02-27T15:26:22.135Z,5.40
2019-02-27T15:28:51.311Z,4.83
2019-02-27T15:31:21.288Z,4.50
2019-02-27T15:33:51.240Z,5.40
2019-02-27T15:36:20.439Z,4.30
2019-02-27T15:38:49.598Z,4.63
2019-02-27T15:41:18.782Z,16.03
2019-02-27T15:43:57.403Z,8.47
2019-02-27T15:46:21.727Z,6.23
2019-02-27T15:48:49.478Z,4.10
2019-02-27T15:51:18.809Z,4.83
2019-02-27T15:53:50.160Z,5.23
2019-02-27T15:56:18.874Z,5.33
2019-02-27T15:58:48.125Z,4.57
2019-02-27T16:01:17.321Z,4.23
2019-02-27T16:03:46.762Z,5.13
2019-02-27T16:06:16.053Z,6.40
2019-02-27T16:08:45.490Z,6.07
2019-02-27T16:11:16.589Z,5.20
2019-02-27T16:13:45.573Z,4.93
2019-02-27T16:16:14.881Z,5.87
2019-02-27T16:18:44.152Z,5.63
2019-02-27T16:21:13.397Z,6.77
2019-02-27T16:23:42.596Z,4.63
2019-02-27T16:26:11.759Z,5.30
2019-02-27T16:28:41.217Z,5.87
2019-02-27T16:31:10.398Z,6.70
2019-02-27T16:33:39.668Z,5.30
2019-02-27T16:36:08.893Z,4.83
2019-02-27T16:38:38.115Z,6.33
2019-02-27T16:41:07.393Z,5.63
2019-02-27T16:43:36.709Z,6.27
2019-02-27T16:46:08.627Z,8.23
2019-02-27T16:48:36.846Z,9.43
2019-02-27T16:51:06.071Z,8.47
2019-02-27T16:53:35.199Z,8.30
2019-02-27T16:56:04.407Z,7.50
2019-02-27T16:58:33.857Z,6.87
2019-02-27T17:01:03.163Z,7.13
2019-02-27T17:03:32.408Z,7.33
2019-02-27T17:06:01.704Z,7.70
2019-02-27T17:08:33.019Z,18.67
2019-02-27T17:11:01.940Z,11.67
2019-02-27T17:13:31.280Z,21.90
2019-02-27T17:16:00.520Z,16.10
2019-02-27T17:18:29.683Z,16.27
2019-02-27T17:20:58.866Z,11.53
2019-02-27T17:23:28.006Z,15.73
2019-02-27T17:25:57.388Z,12.73
2019-02-27T17:28:28.077Z,13.70
2019-02-27T17:30:57.340Z,15.73
2019-02-27T17:33:26.556Z,10.70
2019-02-27T17:35:58.499Z,10.80
2019-02-27T17:38:26.549Z,10.17
2019-02-27T17:40:55.852Z,7.40
2019-02-27T17:43:28.594Z,8.23
2019-02-27T17:45:56.083Z,9.07
2019-02-27T17:48:25.172Z,8.37
2019-02-27T17:50:54.540Z,7.60
2019-02-27T17:53:23.848Z,9.60
2019-02-27T17:55:53.026Z,10.20
2019-02-27T17:58:22.554Z,8.77
2019-02-27T18:00:54.186Z,9.07
2019-02-27T18:03:24.973Z,10.00
2019-02-27T18:05:56.340Z,7.67
2019-02-27T18:08:25.434Z,8.10
2019-02-27T18:10:54.636Z,8.03
2019-02-27T18:13:23.815Z,8.57
2019-02-27T18:15:53.373Z,10.40
2019-02-27T18:18:23.239Z,10.10
2019-02-27T18:20:52.329Z,11.17
2019-02-27T18:23:22.019Z,10.83
2019-02-27T18:25:52.339Z,9.23
2019-02-27T18:28:21.595Z,11.53
2019-02-27T18:30:53.146Z,20.13
2019-02-27T18:33:22.038Z,16.50
2019-02-27T18:35:51.237Z,13.43
2019-02-27T18:38:20.446Z,12.97
2019-02-27T18:40:49.658Z,10.47
2019-02-27T18:43:19.030Z,9.60
2019-02-27T18:45:50.874Z,9.53
2019-02-27T18:48:19.346Z,9.27
2019-02-27T18:50:48.499Z,11.23
2019-02-27T18:53:17.732Z,9.80
2019-02-27T18:55:46.925Z,14.80
2019-02-27T18:58:18.166Z,11.97
2019-02-27T19:00:46.896Z,10.73
2019-02-27T19:03:16.196Z,14.13
2019-02-27T19:05:45.439Z,14.47
2019-02-27T19:08:14.693Z,12.57
2019-02-27T19:10:44.047Z,12.33
2019-02-27T19:13:14.434Z,13.13
2019-02-27T19:15:46.330Z,13.87
2019-02-27T19:18:15.441Z,12.50
2019-02-27T19:20:44.695Z,11.53
2019-02-27T19:23:17.378Z,11.83
2019-02-27T19:25:45.613Z,13.90
2019-02-27T19:28:15.094Z,12.60
2019-02-27T19:30:44.343Z,8.63
2019-02-27T19:33:13.628Z,10.57
2019-02-27T19:35:42.867Z,11.00
2019-02-27T19:38:13.731Z,10.57
2019-02-27T19:40:43.263Z,13.53
2019-02-27T19:43:12.575Z,9.70
2019-02-27T19:45:42.404Z,11.57
2019-02-27T19:48:12.835Z,11.30
2019-02-27T19:50:45.308Z,10.20
2019-02-27T19:53:13.058Z,21.43
2019-02-27T19:55:42.293Z,24.23
2019-02-27T19:58:14.347Z,20.67
2019-02-27T20:00:48.383Z,16.47
2019-02-27T20:03:13.750Z,14.97
2019-02-27T20:05:43.064Z,12.93
2019-02-27T20:08:12.583Z,11.07
2019-02-27T20:10:43.998Z,10.80
2019-02-27T20:13:13.097Z,9.17
2019-02-27T20:15:42.808Z,10.23
2019-02-27T20:18:14.611Z,8.00
2019-02-27T20:20:44.571Z,10.20
2019-02-27T20:23:15.358Z,7.77
2019-02-27T20:25:47.570Z,7.70
2019-02-27T20:28:17.053Z,8.90
2019-02-27T20:30:46.690Z,8.73
2019-02-27T20:33:16.690Z,7.43
2019-02-27T20:35:45.927Z,10.17
2019-02-27T20:38:16.947Z,8.07
2019-02-27T20:40:46.575Z,8.53
2019-02-27T20:43:16.465Z,8.90
2019-02-27T20:45:46.329Z,8.27
2019-02-27T20:48:15.542Z,11.33
2019-02-27T20:50:45.538Z,6.70
2019-02-27T20:53:15.327Z,8.37
2019-02-27T20:55:44.974Z,7.10
2019-02-27T20:58:16.848Z,7.60
2019-02-27T21:00:45.440Z,7.37
2019-02-27T21:03:14.762Z,6.97
2019-02-27T21:05:44.060Z,6.63
2019-02-27T21:08:13.408Z,6.07
2019-02-27T21:10:42.803Z,7.23
2019-02-27T21:13:15.655Z,8.40
2019-02-27T21:15:43.986Z,6.77
2019-02-27T21:18:13.746Z,5.33
2019-02-27T21:20:45.154Z,5.33
2019-02-27T21:23:14.128Z,6.60
2019-02-27T21:25:46.261Z,7.67
2019-02-27T21:28:20.894Z,5.07
2019-02-27T21:30:46.190Z,6.60
2019-02-27T21:33:17.006Z,7.60
2019-02-27T21:35:46.518Z,7.97
2019-02-27T21:38:16.760Z,6.97
2019-02-27T21:40:47.080Z,6.40
2019-02-27T21:43:16.457Z,7.07
2019-02-27T21:45:45.962Z,7.00
2019-02-27T21:48:16.398Z,6.40
2019-02-27T21:50:45.760Z,8.30
2019-02-27T21:53:16.375Z,5.97
2019-02-27T21:55:45.677Z,7.10
2019-02-27T21:58:20.434Z,6.33
2019-02-27T22:00:48.871Z,7.47
2019-02-27T22:03:18.283Z,6.57
2019-02-27T22:05:52.627Z,38.60
2019-02-27T22:08:18.744Z,13.50
2019-02-27T22:10:53.092Z,8.43
2019-02-27T22:13:28.608Z,7.93
2019-02-27T22:15:49.554Z,7.47
2019-02-27T22:18:18.680Z,7.47
2019-02-27T22:20:48.140Z,6.70
2019-02-27T22:23:17.271Z,9.57
2019-02-27T22:25:46.458Z,8.30
2019-02-27T22:28:17.273Z,8.30
2019-02-27T22:30:46.574Z,7.37
2019-02-27T22:33:15.707Z,7.50
2019-02-27T22:35:44.884Z,6.97
2019-02-27T22:38:13.910Z,7.90
2019-02-27T22:40:43.358Z,7.77
2019-02-27T22:43:12.650Z,8.07
2019-02-27T22:45:43.971Z,8.57
2019-02-27T22:48:12.589Z,8.40
2019-02-27T22:50:41.895Z,8.17
2019-02-27T22:53:11.156Z,6.43
2019-02-27T22:55:42.303Z,6.53
2019-02-27T22:58:11.141Z,8.13
2019-02-27T23:01:03.456Z,6.37
2019-02-27T23:03:58.911Z,6.50
2019-02-27T23:06:28.318Z,6.37
2019-02-27T23:08:57.766Z,6.97
2019-02-27T23:11:46.361Z,8.57
2019-02-27T23:14:18.949Z,6.73
2019-02-27T23:16:46.885Z,5.57
2019-02-27T23:19:16.150Z,7.50
2019-02-27T23:21:45.260Z,9.27
2019-02-27T23:24:14.454Z,6.67
2019-02-27T23:26:43.719Z,8.43
2019-02-27T23:29:12.889Z,7.27
2019-02-27T23:31:42.203Z,6.43
2019-02-27T23:34:11.536Z,7.13
2019-02-27T23:36:40.735Z,8.17
2019-02-27T23:39:10.198Z,7.30
2019-02-27T23:41:39.448Z,6.57
2019-02-27T23:44:08.628Z,9.07
2019-02-27T23:46:37.900Z,6.07
2019-02-27T23:49:07.403Z,9.17
2019-02-27T23:51:36.798Z,6.80
2019-02-27T23:54:07.470Z,7.43
2019-02-27T23:56:36.741Z,6.27
2019-02-27T23:59:05.896Z,8.57
